Time;durP1;ratioP1;P1;durP2;ratioP2;P2;SDS_P1;SDS_P2;PMS_P1;PMS_P2;Temp;Humidity;BMP_temperature;BMP_pressure;BME280_temperature;BME280_humidity;BME280_pressure;Samples;Min_cycle;Max_cycle;Signal;HPM_P1;HPM_P2
2024/04/06 00:02:01;;;;;;;3.80;2.63;;;15.20;99.90;;;;;;5076039;28;20529;-61
2024/04/06 00:04:30;;;;;;;2.57;1.93;;;15.20;99.90;;;;;;5085328;28;20962;-61
2024/04/06 00:06:56;;;;;;;3.83;1.97;;;15.20;99.90;;;;;;5079662;28;20453;-62
2024/04/06 00:09:23;;;;;;;16.50;6.73;;;15.20;99.90;;;;;;5078159;28;20966;-61
2024/04/06 00:11:49;;;;;;;3.03;1.80;;;15.30;99.90;;;;;;5079425;28;20540;-63
2024/04/06 00:14:18;;;;;;;4.37;2.33;;;15.20;99.90;;;;;;5072063;28;20886;-61
2024/04/06 00:16:45;;;;;;;2.13;1.93;;;15.20;99.90;;;;;;5081480;28;20192;-61
2024/04/06 00:19:12;;;;;;;6.60;1.90;;;15.20;99.90;;;;;;5075876;28;20442;-64
2024/04/06 00:21:38;;;;;;;3.10;2.67;;;15.30;99.90;;;;;;5090915;28;20446;-62
2024/04/06 00:24:05;;;;;;;2.30;1.80;;;15.20;99.90;;;;;;5093056;28;20464;-63
2024/04/06 00:26:31;;;;;;;4.43;1.90;;;15.20;99.90;;;;;;5094068;28;20393;-61
2024/04/06 00:28:58;;;;;;;4.03;2.00;;;15.20;99.90;;;;;;5094764;28;20524;-61
2024/04/06 00:31:24;;;;;;;2.40;1.73;;;15.20;99.90;;;;;;5094635;28;20286;-62
2024/04/06 00:33:52;;;;;;;2.40;2.20;;;15.20;99.90;;;;;;5094965;28;21039;-62
2024/04/06 00:36:18;;;;;;;3.00;2.57;;;15.20;99.90;;;;;;5096513;28;20200;-63
2024/04/06 00:38:44;;;;;;;4.93;2.27;;;15.10;99.90;;;;;;5090282;28;20496;-63
2024/04/06 00:41:10;;;;;;;6.50;3.97;;;15.10;99.90;;;;;;5087802;28;20196;-61
2024/04/06 00:43:37;;;;;;;3.50;2.57;;;15.10;99.90;;;;;;5082134;28;20560;-61
2024/04/06 00:46:06;;;;;;;2.90;2.40;;;15.10;99.90;;;;;;5083701;28;20445;-61
2024/04/06 00:48:33;;;;;;;3.00;2.37;;;15.10;99.90;;;;;;5089794;28;20427;-61
2024/04/06 00:51:05;;;;;;;2.90;2.20;;;15.10;99.90;;;;;;5088021;28;20445;-59
2024/04/06 00:53:32;;;;;;;3.80;2.50;;;15.00;99.90;;;;;;5088345;28;20442;-62
2024/04/06 00:55:58;;;;;;;3.40;2.13;;;15.00;99.90;;;;;;5084108;28;20447;-62
2024/04/06 00:58:25;;;;;;;2.80;2.27;;;15.00;99.90;;;;;;5087326;28;20469;-63
2024/04/06 01:00:52;;;;;;;5.70;2.50;;;15.00;99.90;;;;;;5074561;28;20443;-62
2024/04/06 01:03:19;;;;;;;2.13;1.73;;;15.00;99.90;;;;;;5082336;28;20952;-62
2024/04/06 01:05:44;;;;;;;4.90;3.23;;;15.00;99.90;;;;;;5082862;28;20457;-60
2024/04/06 01:08:13;;;;;;;5.03;3.43;;;15.00;99.90;;;;;;5083260;28;20930;-61
2024/04/06 01:10:39;;;;;;;5.20;2.80;;;15.00;99.90;;;;;;5084638;28;20437;-61
2024/04/06 01:13:06;;;;;;;3.53;2.37;;;14.90;99.90;;;;;;5083106;28;20537;-61
2024/04/06 01:15:34;;;;;;;5.33;2.67;;;14.90;99.90;;;;;;5083018;28;21051;-61
2024/04/06 01:18:01;;;;;;;6.80;2.70;;;14.90;99.90;;;;;;5080695;28;20483;-60
2024/04/06 01:20:27;;;;;;;9.50;3.63;;;14.90;99.90;;;;;;5084495;28;20442;-62
2024/04/06 01:22:54;;;;;;;3.40;2.53;;;14.80;99.90;;;;;;5079081;28;20802;-61
2024/04/06 01:25:23;;;;;;;6.70;2.83;;;14.80;99.90;;;;;;5081226;28;20970;-61
2024/04/06 01:27:53;;;;;;;4.70;2.97;;;14.90;99.90;;;;;;5083459;28;20930;-63
2024/04/06 01:30:19;;;;;;;4.13;3.03;;;14.90;99.90;;;;;;5084162;28;20525;-62
2024/04/06 01:32:47;;;;;;;6.10;3.00;;;14.80;99.90;;;;;;5082613;28;20518;-61
2024/04/06 01:35:13;;;;;;;4.53;3.07;;;14.70;99.90;;;;;;5077299;28;20217;-61
2024/04/06 01:37:40;;;;;;;4.00;2.83;;;14.70;99.90;;;;;;5075073;28;20548;-59
2024/04/06 01:40:07;;;;;;;4.47;2.80;;;14.60;99.90;;;;;;5080295;28;20530;-63
2024/04/06 01:42:36;;;;;;;5.10;3.37;;;14.60;99.90;;;;;;5081938;28;20487;-62
2024/04/06 01:45:02;;;;;;;5.33;2.90;;;14.60;99.90;;;;;;5082084;28;20899;-61
2024/04/06 01:47:29;;;;;;;4.50;3.07;;;14.60;99.90;;;;;;5082849;28;20434;-62
2024/04/06 01:50:02;;;;;;;5.57;3.20;;;14.50;99.90;;;;;;5084778;28;20431;-61
2024/04/06 01:52:29;;;;;;;6.30;3.03;;;14.50;99.90;;;;;;5083125;28;20441;-61
2024/04/06 01:54:54;;;;;;;5.70;3.53;;;14.50;99.90;;;;;;5084124;28;20458;-60
2024/04/06 01:57:21;;;;;;;3.63;3.00;;;14.40;99.90;;;;;;5084764;28;20846;-61
2024/04/06 01:59:48;;;;;;;4.70;2.57;;;14.40;99.90;;;;;;5082796;28;20282;-61
2024/04/06 02:02:15;;;;;;;17.10;10.90;;;14.40;99.90;;;;;;5084949;28;20435;-58
2024/04/06 02:04:41;;;;;;;2.80;2.37;;;14.30;99.90;;;;;;5072763;28;20971;-63
2024/04/06 02:07:08;;;;;;;3.07;2.80;;;14.30;99.90;;;;;;5073081;28;20508;-62
2024/04/06 02:09:34;;;;;;;2.23;2.03;;;14.30;99.90;;;;;;5072725;28;20529;-62
2024/04/06 02:12:01;;;;;;;8.33;2.60;;;14.30;99.90;;;;;;5072829;28;20533;-61
2024/04/06 02:14:27;;;;;;;8.33;3.17;;;14.30;99.90;;;;;;5072547;28;20220;-62
2024/04/06 02:16:55;;;;;;;9.13;3.87;;;14.20;99.90;;;;;;5072929;28;20529;-58
2024/04/06 02:19:21;;;;;;;3.40;2.93;;;14.20;99.90;;;;;;5072804;28;20710;-62
2024/04/06 02:21:47;;;;;;;2.97;2.40;;;14.20;99.90;;;;;;5072428;28;20541;-62
2024/04/06 02:24:13;;;;;;;2.50;2.30;;;14.20;99.90;;;;;;5072393;28;20217;-61
2024/04/06 02:26:41;;;;;;;2.47;2.27;;;14.20;99.90;;;;;;5072385;28;20801;-60
2024/04/06 02:29:07;;;;;;;4.60;2.80;;;14.20;99.90;;;;;;5072320;28;20200;-59
2024/04/06 02:31:37;;;;;;;3.77;2.30;;;14.20;99.90;;;;;;5072440;28;20442;-62
2024/04/06 02:34:08;;;;;;;3.33;2.20;;;14.20;99.90;;;;;;5072187;28;20220;-61
2024/04/06 02:36:35;;;;;;;2.27;2.07;;;14.20;99.90;;;;;;5071760;28;20454;-61
2024/04/06 02:39:02;;;;;;;5.53;2.67;;;14.20;99.90;;;;;;5071920;28;20477;-61
2024/04/06 02:41:28;;;;;;;8.00;2.77;;;14.20;99.90;;;;;;5072283;28;20814;-61
2024/04/06 02:43:54;;;;;;;2.83;2.17;;;14.20;99.90;;;;;;5072085;28;21222;-61
2024/04/06 02:46:21;;;;;;;5.43;2.90;;;14.20;99.90;;;;;;5072415;28;20522;-61
2024/04/06 02:48:47;;;;;;;7.50;2.13;;;14.20;99.90;;;;;;5071921;28;20673;-61
2024/04/06 02:51:16;;;;;;;3.57;2.87;;;14.20;99.90;;;;;;5074642;28;20469;-62
2024/04/06 02:53:42;;;;;;;4.23;2.10;;;14.10;99.90;;;;;;5074261;28;20462;-59
2024/04/06 02:56:09;;;;;;;2.80;2.40;;;14.20;99.90;;;;;;5080149;28;20527;-62
2024/04/06 02:58:37;;;;;;;6.77;2.53;;;14.10;99.90;;;;;;5090801;28;20247;-62
2024/04/06 03:01:04;;;;;;;1.57;1.47;;;14.20;99.90;;;;;;5088258;28;20800;-61
2024/04/06 03:03:30;;;;;;;2.10;1.53;;;14.10;99.90;;;;;;5084858;28;20553;-59
2024/04/06 03:05:57;;;;;;;4.97;2.27;;;14.20;99.90;;;;;;5075619;28;20526;-56
2024/04/06 03:08:24;;;;;;;5.20;2.53;;;14.20;99.90;;;;;;5081170;28;20280;-60
2024/04/06 03:10:51;;;;;;;2.47;2.27;;;14.20;99.90;;;;;;5079343;28;20446;-62
2024/04/06 03:13:18;;;;;;;2.10;1.90;;;14.20;99.90;;;;;;5074749;28;20511;-56
2024/04/06 03:15:48;;;;;;;1.77;1.50;;;14.20;99.90;;;;;;5080262;28;20439;-61
2024/04/06 03:18:14;;;;;;;2.30;1.90;;;14.10;99.90;;;;;;5072120;28;20466;-61
2024/04/06 03:20:41;;;;;;;4.83;3.10;;;14.20;99.90;;;;;;5071892;28;20438;-61
2024/04/06 03:23:06;;;;;;;4.07;2.10;;;14.20;99.90;;;;;;5071622;28;20295;-60
2024/04/06 03:25:36;;;;;;;3.43;2.30;;;14.20;99.90;;;;;;5091238;22;21089;-68
2024/04/06 03:28:02;;;;;;;3.30;1.90;;;14.10;99.90;;;;;;5080307;28;20196;-67
2024/04/06 03:30:29;;;;;;;4.00;2.10;;;14.10;99.90;;;;;;5077572;28;20450;-67
2024/04/06 03:32:55;;;;;;;3.40;2.53;;;14.10;99.90;;;;;;5075944;28;20470;-67
2024/04/06 03:35:22;;;;;;;3.43;2.27;;;14.10;99.90;;;;;;5075335;28;20752;-68
2024/04/06 03:37:50;;;;;;;3.90;2.93;;;14.10;99.90;;;;;;5074563;28;20487;-68
2024/04/06 03:40:20;;;;;;;4.27;2.27;;;14.10;99.90;;;;;;5069684;28;20435;-68
2024/04/06 03:42:56;;;;;;;2.37;2.17;;;14.00;99.90;;;;;;5075797;28;20888;-68
2024/04/06 03:45:22;;;;;;;3.50;2.60;;;14.00;99.90;;;;;;5074880;28;20501;-68
2024/04/06 03:47:49;;;;;;;3.73;2.73;;;14.00;99.90;;;;;;5076283;28;20450;-67
2024/04/06 03:50:15;;;;;;;3.80;2.17;;;14.00;99.90;;;;;;5080238;28;20469;-67
2024/04/06 03:52:42;;;;;;;5.10;2.03;;;14.00;99.90;;;;;;5080499;28;20500;-68
2024/04/06 03:55:08;;;;;;;2.63;2.20;;;14.00;99.90;;;;;;5080536;28;20471;-68
2024/04/06 03:57:36;;;;;;;5.40;2.67;;;14.00;99.90;;;;;;5080816;28;20779;-67
2024/04/06 04:00:09;;;;;;;2.50;1.90;;;14.00;99.90;;;;;;5080657;28;20205;-67
2024/04/06 04:02:36;;;;;;;6.90;2.73;;;14.00;99.90;;;;;;5079980;28;20946;-67
2024/04/06 04:05:05;;;;;;;4.57;2.70;;;14.00;99.90;;;;;;5080124;28;20497;-68
2024/04/06 04:07:33;;;;;;;2.67;1.83;;;14.00;99.90;;;;;;5072955;28;20969;-67
2024/04/06 04:10:01;;;;;;;3.43;2.33;;;14.10;99.90;;;;;;5078232;28;20496;-67
2024/04/06 04:12:27;;;;;;;5.40;2.10;;;14.10;99.90;;;;;;5080591;28;20541;-67
2024/04/06 04:14:54;;;;;;;3.23;2.47;;;14.00;99.90;;;;;;5079187;28;20515;-67
2024/04/06 04:17:21;;;;;;;2.20;2.00;;;14.00;99.90;;;;;;5081229;28;20507;-68
2024/04/06 04:19:48;;;;;;;2.57;2.00;;;14.00;99.90;;;;;;5081723;28;20479;-67
2024/04/06 04:22:14;;;;;;;3.53;2.47;;;14.00;99.90;;;;;;5082443;28;20500;-67
2024/04/06 04:24:42;;;;;;;3.17;2.50;;;14.00;99.90;;;;;;5080808;28;20516;-67
2024/04/06 04:27:11;;;;;;;5.93;2.43;;;14.00;99.90;;;;;;5080725;28;20442;-67
2024/04/06 04:29:37;;;;;;;2.17;1.80;;;14.00;99.90;;;;;;5079851;28;20469;-67
2024/04/06 04:32:04;;;;;;;3.93;2.33;;;14.00;99.90;;;;;;5080711;28;20470;-67
2024/04/06 04:34:32;;;;;;;2.93;2.00;;;13.90;99.90;;;;;;5080534;28;20994;-67
2024/04/06 04:36:58;;;;;;;3.17;1.97;;;13.90;99.90;;;;;;5080893;28;20800;-68
2024/04/06 04:39:25;;;;;;;1.90;1.70;;;13.90;99.90;;;;;;5079881;28;20500;-68
2024/04/06 04:41:52;;;;;;;3.00;2.13;;;13.90;99.90;;;;;;5079924;28;20935;-68
2024/04/06 04:44:19;;;;;;;2.53;2.03;;;13.90;99.90;;;;;;5079825;28;20454;-68
2024/04/06 04:46:45;;;;;;;3.93;1.93;;;13.90;99.90;;;;;;5081367;28;20867;-68
2024/04/06 04:49:12;;;;;;;2.50;2.30;;;13.90;99.90;;;;;;5081233;28;20930;-68
2024/04/06 04:51:39;;;;;;;4.00;2.20;;;13.90;99.90;;;;;;5081820;28;20988;-68
2024/04/06 04:54:06;;;;;;;3.00;2.43;;;13.90;99.90;;;;;;5080449;28;20462;-68
2024/04/06 04:56:32;;;;;;;2.60;2.37;;;13.90;99.90;;;;;;5081460;28;20508;-68
2024/04/06 04:58:59;;;;;;;5.40;2.57;;;14.00;99.90;;;;;;5080487;28;20474;-68
2024/04/06 05:01:28;;;;;;;3.50;2.53;;;13.90;99.90;;;;;;5078990;28;20204;-68
2024/04/06 05:03:55;;;;;;;2.63;2.23;;;13.90;99.90;;;;;;5079351;28;20869;-67
2024/04/06 05:06:22;;;;;;;5.60;3.13;;;14.10;99.90;;;;;;5080129;28;20474;-68
2024/04/06 05:08:50;;;;;;;2.63;2.23;;;14.00;99.90;;;;;;5080469;28;20443;-67
2024/04/06 05:11:17;;;;;;;9.07;2.90;;;14.00;99.90;;;;;;5078786;28;20449;-68
2024/04/06 05:13:43;;;;;;;3.07;2.77;;;14.10;99.90;;;;;;5078643;28;20788;-67
2024/04/06 05:16:10;;;;;;;4.07;2.77;;;14.10;99.90;;;;;;5079257;28;20526;-67
2024/04/06 05:18:36;;;;;;;3.60;2.77;;;14.10;99.90;;;;;;5079557;28;20538;-67
2024/04/06 05:21:03;;;;;;;6.43;2.60;;;14.10;99.90;;;;;;5067332;28;20530;-67
2024/04/06 05:23:29;;;;;;;2.93;2.20;;;14.10;99.90;;;;;;5079381;28;20470;-67
2024/04/06 05:25:57;;;;;;;3.70;2.63;;;14.20;99.90;;;;;;5079197;28;20451;-67
2024/04/06 05:28:27;;;;;;;3.13;2.83;;;14.20;99.90;;;;;;5079212;28;20853;-67
2024/04/06 05:30:54;;;;;;;4.63;2.77;;;14.20;99.90;;;;;;5078662;28;20886;-68
2024/04/06 05:33:21;;;;;;;9.47;3.10;;;14.20;99.90;;;;;;5079566;28;20833;-67
2024/04/06 05:35:55;;;;;;;3.83;2.07;;;14.20;99.90;;;;;;5079981;28;20442;-67
2024/04/06 05:38:24;;;;;;;5.63;2.70;;;14.20;99.90;;;;;;5079567;28;20524;-67
2024/04/06 05:40:53;;;;;;;2.40;2.10;;;14.30;99.90;;;;;;5079850;28;20446;-68
2024/04/06 05:43:20;;;;;;;4.03;2.30;;;14.40;99.90;;;;;;5079229;28;20443;-67
2024/04/06 05:45:47;;;;;;;3.10;1.80;;;14.40;99.90;;;;;;5078920;28;20443;-68
2024/04/06 05:48:24;;;;;;;8.67;2.17;;;14.50;99.90;;;;;;5078995;28;20557;-67
2024/04/06 05:50:51;;;;;;;2.23;1.80;;;14.50;99.90;;;;;;5079440;28;20445;-68
2024/04/06 05:53:17;;;;;;;3.00;2.37;;;14.60;99.90;;;;;;5079272;28;20441;-67
2024/04/06 05:55:53;;;;;;;3.27;2.03;;;14.60;99.90;;;;;;5076177;28;20442;-68
2024/04/06 05:58:25;;;;;;;3.30;2.03;;;14.60;99.90;;;;;;5080436;28;20520;-68
2024/04/06 06:03:42;;;;;;;2.40;2.10;;;14.60;99.90;;;;;;5076340;28;20507;-69
2024/04/06 06:06:08;;;;;;;4.17;2.40;;;14.70;99.90;;;;;;5079261;28;20485;-68
2024/04/06 06:08:38;;;;;;;5.00;2.33;;;14.70;99.90;;;;;;5079244;28;20431;-68
2024/04/06 06:11:22;;;;;;;4.90;2.37;;;14.80;99.90;;;;;;5073969;28;20435;-68
2024/04/06 06:13:56;;;;;;;2.90;2.03;;;14.80;99.90;;;;;;5134290;22;21327;-69
2024/04/06 06:16:27;;;;;;;2.67;2.43;;;14.80;99.90;;;;;;5095912;28;20433;-67
2024/04/06 06:18:54;;;;;;;4.73;2.50;;;14.90;99.90;;;;;;5095165;28;20816;-68
2024/04/06 06:21:22;;;;;;;2.60;1.90;;;15.00;99.90;;;;;;5098148;28;20828;-69
2024/04/06 06:23:49;;;;;;;2.90;2.60;;;15.00;99.90;;;;;;5096638;28;20458;-67
2024/04/06 06:26:15;;;;;;;8.50;2.83;;;15.10;99.90;;;;;;5083446;28;20458;-68
2024/04/06 06:28:42;;;;;;;3.60;2.27;;;15.30;99.90;;;;;;5077320;28;20954;-66
2024/04/06 06:31:09;;;;;;;5.13;2.30;;;15.30;99.90;;;;;;5077378;28;20254;-67
2024/04/06 06:33:36;;;;;;;2.30;2.10;;;15.50;99.90;;;;;;5077143;28;20463;-68
2024/04/06 06:36:03;;;;;;;4.40;2.00;;;15.60;99.90;;;;;;5076797;28;20497;-68
2024/04/06 06:38:30;;;;;;;3.63;2.13;;;15.60;99.90;;;;;;5076015;28;20475;-68
2024/04/06 06:40:55;;;;;;;2.53;1.90;;;15.70;99.90;;;;;;5076863;28;20526;-68
2024/04/06 06:43:22;;;;;;;2.90;2.13;;;15.70;99.90;;;;;;5072435;28;20973;-67
2024/04/06 06:45:48;;;;;;;2.40;1.77;;;15.80;99.90;;;;;;5083601;28;20254;-68
2024/04/06 06:48:16;;;;;;;5.40;2.40;;;15.90;99.90;;;;;;5095872;28;20832;-68
2024/04/06 06:50:42;;;;;;;3.90;2.17;;;15.90;99.90;;;;;;5096554;28;20230;-67
2024/04/06 06:53:09;;;;;;;7.77;1.90;;;15.90;99.90;;;;;;5097317;28;20445;-68
2024/04/06 06:55:36;;;;;;;6.80;2.43;;;15.90;99.90;;;;;;5096414;28;20541;-68
2024/04/06 06:58:05;;;;;;;10.50;2.20;;;16.00;99.90;;;;;;5096847;28;20484;-68
2024/04/06 07:00:31;;;;;;;2.50;2.30;;;16.00;99.90;;;;;;5096853;28;20532;-66
2024/04/06 07:02:58;;;;;;;3.40;2.23;;;16.00;99.90;;;;;;5096027;28;20513;-68
2024/04/06 07:05:25;;;;;;;3.90;2.80;;;16.10;99.90;;;;;;5094847;28;20493;-67
2024/04/06 07:07:58;;;;;;;2.30;2.10;;;16.20;99.90;;;;;;5094691;28;20452;-67
2024/04/06 07:10:23;;;;;;;2.50;1.90;;;16.20;99.90;;;;;;5095436;28;20442;-67
2024/04/06 07:12:50;;;;;;;3.20;1.90;;;16.30;99.90;;;;;;5095283;28;20518;-67
2024/04/06 07:15:16;;;;;;;3.60;2.00;;;16.40;99.90;;;;;;5094301;28;20232;-67
2024/04/06 07:17:43;;;;;;;3.20;2.23;;;16.60;99.90;;;;;;5095173;28;20942;-67
2024/04/06 07:20:10;;;;;;;3.10;2.33;;;16.70;99.90;;;;;;5095671;28;20675;-69
2024/04/06 07:22:39;;;;;;;4.07;2.30;;;16.80;99.90;;;;;;5095208;28;20457;-67
2024/04/06 07:25:05;;;;;;;3.33;2.10;;;17.00;99.90;;;;;;5094218;28;20776;-68
2024/04/06 07:27:32;;;;;;;3.20;1.57;;;17.00;99.90;;;;;;5095061;28;20514;-68
2024/04/06 07:29:58;;;;;;;4.67;2.03;;;17.00;99.90;;;;;;5094147;28;20473;-68
2024/04/06 07:32:25;;;;;;;4.50;2.23;;;17.00;99.90;;;;;;5094822;28;20876;-68
2024/04/06 07:34:51;;;;;;;5.90;2.60;;;17.00;99.90;;;;;;5094540;28;20544;-68
2024/04/06 07:37:17;;;;;;;2.63;2.00;;;17.10;99.90;;;;;;5094307;28;20509;-67
2024/04/06 07:39:45;;;;;;;3.53;2.10;;;17.10;99.90;;;;;;5093711;28;20318;-68
2024/04/06 07:42:12;;;;;;;4.83;2.47;;;17.20;99.90;;;;;;5093563;28;20452;-68
2024/04/06 07:44:38;;;;;;;2.33;2.03;;;17.20;99.90;;;;;;5093545;28;20937;-67
2024/04/06 07:47:05;;;;;;;3.30;1.90;;;17.40;99.90;;;;;;5072990;28;20533;-67
2024/04/06 07:49:31;;;;;;;2.00;1.80;;;17.60;99.90;;;;;;5075203;28;20305;-68
2024/04/06 07:51:58;;;;;;;4.20;2.10;;;17.70;99.90;;;;;;5084676;28;20968;-68
2024/04/06 07:54:24;;;;;;;2.80;1.90;;;17.90;99.90;;;;;;5068406;28;20292;-68
2024/04/06 07:56:54;;;;;;;6.07;2.10;;;17.90;99.90;;;;;;5064944;28;20892;-68
2024/04/06 07:59:20;;;;;;;2.50;1.70;;;18.00;99.90;;;;;;5090213;28;20474;-68
2024/04/06 08:01:46;;;;;;;2.80;1.53;;;18.00;99.90;;;;;;5070590;28;20442;-68
2024/04/06 08:04:12;;;;;;;3.20;2.03;;;18.00;99.90;;;;;;5083478;28;20538;-68
2024/04/06 08:06:39;;;;;;;2.30;1.60;;;18.20;99.90;;;;;;5076073;28;20490;-67
2024/04/06 08:09:05;;;;;;;4.40;2.10;;;18.30;99.90;;;;;;5074152;28;20287;-67
2024/04/06 08:11:32;;;;;;;2.63;1.87;;;18.50;99.90;;;;;;5075672;28;20818;-67
2024/04/06 08:13:59;;;;;;;2.67;1.90;;;19.30;99.90;;;;;;5082607;28;20500;-67
2024/04/06 08:16:26;;;;;;;2.70;1.93;;;20.90;99.90;;;;;;5096792;28;20442;-68
2024/04/06 08:18:52;;;;;;;2.60;2.20;;;22.60;99.90;;;;;;5096842;28;20479;-68
2024/04/06 08:21:19;;;;;;;3.13;2.00;;;24.40;99.90;;;;;;5099190;28;20618;-68
2024/04/06 08:23:45;;;;;;;3.23;1.50;;;25.60;99.90;;;;;;5099145;22;20256;-62
2024/04/06 08:26:12;;;;;;;2.10;1.57;;;26.70;99.90;;;;;;5068749;28;20436;-63
2024/04/06 08:28:38;;;;;;;4.00;2.10;;;27.50;99.90;;;;;;5068737;28;20470;-63
2024/04/06 08:31:06;;;;;;;2.47;1.70;;;28.20;95.40;;;;;;5068108;28;20447;-63
2024/04/06 08:33:32;;;;;;;2.70;1.90;;;28.80;92.30;;;;;;5066296;28;20234;-62
2024/04/06 08:35:59;;;;;;;2.77;2.00;;;28.50;91.30;;;;;;5068005;28;20442;-62
2024/04/06 08:38:25;;;;;;;2.20;1.77;;;27.70;91.30;;;;;;5065952;28;20267;-67
2024/04/06 08:40:53;;;;;;;3.60;2.40;;;26.80;92.90;;;;;;5071283;28;20436;-67
2024/04/06 08:43:21;;;;;;;3.80;1.63;;;26.60;94.40;;;;;;5075934;28;20442;-66
2024/04/06 08:45:50;;;;;;;5.30;1.47;;;27.00;94.20;;;;;;5068198;28;20520;-66
2024/04/06 08:48:19;;;;;;;7.10;1.90;;;27.30;93.60;;;;;;5069319;28;20441;-63
2024/04/06 08:50:46;;;;;;;3.60;2.20;;;27.80;92.40;;;;;;5060778;28;20462;-63
2024/04/06 08:53:12;;;;;;;2.65;1.80;;;28.50;90.80;;;;;;5071018;28;20435;-64
2024/04/06 08:55:40;;;;;;;5.23;2.27;;;28.50;88.80;;;;;;5066436;28;20195;-63
2024/04/06 08:58:06;;;;;;;3.40;1.67;;;28.50;88.60;;;;;;5067984;28;20200;-63
2024/04/06 09:00:33;;;;;;;3.80;3.50;;;28.50;87.10;;;;;;5070138;28;20469;-63
2024/04/06 09:02:59;;;;;;;3.70;2.07;;;28.20;86.90;;;;;;5068743;28;20198;-63
2024/04/06 09:05:27;;;;;;;3.37;1.73;;;27.60;88.10;;;;;;5066712;28;20443;-62
2024/04/06 09:07:53;;;;;;;3.30;1.77;;;26.50;91.00;;;;;;5070551;28;20472;-63
2024/04/06 09:10:25;;;;;;;3.17;1.60;;;25.40;93.40;;;;;;5070934;28;20455;-62
2024/04/06 09:12:51;;;;;;;3.30;2.03;;;24.30;96.20;;;;;;5071967;28;20201;-62
2024/04/06 09:15:18;;;;;;;2.50;1.80;;;23.50;99.40;;;;;;5070903;28;20462;-61
2024/04/06 09:17:44;;;;;;;2.33;1.37;;;22.80;99.90;;;;;;5070595;28;20519;-62
2024/04/06 09:20:12;;;;;;;2.53;1.60;;;22.50;99.90;;;;;;5068369;28;20507;-63
2024/04/06 09:22:42;;;;;;;2.97;2.00;;;22.70;99.90;;;;;;5073903;28;20212;-63
2024/04/06 09:25:09;;;;;;;3.83;1.87;;;22.70;99.90;;;;;;5073978;28;20455;-63
2024/04/06 09:27:43;;;;;;;2.40;1.47;;;23.10;99.90;;;;;;5074507;28;20444;-63
2024/04/06 09:30:11;;;;;;;2.63;1.73;;;24.00;99.90;;;;;;5074453;28;20569;-63
2024/04/06 09:32:39;;;;;;;2.20;1.53;;;24.70;99.90;;;;;;5074427;28;20438;-64
2024/04/06 09:35:07;;;;;;;3.07;1.87;;;25.60;99.90;;;;;;5073094;28;20469;-63
2024/04/06 09:37:38;;;;;;;2.83;1.70;;;26.40;99.90;;;;;;5073193;28;20447;-62
2024/04/06 09:40:09;;;;;;;2.23;1.70;;;27.20;97.30;;;;;;5072700;28;20681;-64
2024/04/06 09:42:36;;;;;;;4.20;1.80;;;27.80;94.10;;;;;;5072102;28;20512;-63
2024/04/06 09:45:05;;;;;;;4.57;1.70;;;28.10;91.70;;;;;;5072102;28;20436;-63
2024/04/06 09:47:32;;;;;;;4.03;1.77;;;28.30;90.70;;;;;;5071767;28;20449;-63
2024/04/06 09:50:02;;;;;;;2.97;1.80;;;28.50;88.00;;;;;;5070904;28;20472;-62
2024/04/06 09:52:29;;;;;;;4.13;1.40;;;28.70;86.50;;;;;;5071344;28;20446;-63
2024/04/06 09:54:56;;;;;;;1.77;1.30;;;28.80;84.10;;;;;;5072007;28;20446;-63
2024/04/06 09:57:24;;;;;;;6.43;1.60;;;28.90;83.20;;;;;;5071869;28;20447;-62
2024/04/06 10:00:00;;;;;;;4.23;1.47;;;29.20;82.10;;;;;;5071972;28;20561;-64
2024/04/06 10:02:34;;;;;;;2.73;1.60;;;29.60;79.90;;;;;;5071413;28;20426;-63
2024/04/06 10:05:05;;;;;;;2.90;1.83;;;29.70;79.90;;;;;;5070089;28;20462;-63
2024/04/06 10:07:33;;;;;;;6.10;1.90;;;29.60;77.80;;;;;;5069665;28;20440;-62
2024/04/06 10:10:01;;;;;;;4.03;1.83;;;29.30;78.40;;;;;;5069743;28;20452;-62
2024/04/06 10:12:42;;;;;;;2.30;1.40;;;29.30;77.10;;;;;;5070044;28;20453;-65
2024/04/06 10:15:13;;;;;;;1.90;1.43;;;29.40;76.90;;;;;;5071817;28;20442;-63
2024/04/06 10:17:44;;;;;;;2.30;1.23;;;29.70;76.10;;;;;;5071351;28;20477;-63
2024/04/06 10:20:13;;;;;;;2.43;1.60;;;29.90;76.60;;;;;;5071144;28;20487;-62
2024/04/06 10:22:49;;;;;;;3.03;1.40;;;30.00;74.40;;;;;;5070940;28;20486;-62
2024/04/06 10:25:18;;;;;;;3.60;1.83;;;30.00;73.30;;;;;;5069719;28;20461;-62
2024/04/06 10:27:46;;;;;;;1.77;1.60;;;29.70;74.20;;;;;;5070554;28;20671;-61
2024/04/06 10:30:14;;;;;;;2.90;1.40;;;29.50;75.10;;;;;;5070877;28;20470;-63
2024/04/06 10:32:40;;;;;;;1.60;1.23;;;29.40;74.50;;;;;;5070674;28;20453;-63
2024/04/06 10:35:07;;;;;;;5.90;1.40;;;29.10;72.70;;;;;;5068909;28;20429;-63
2024/04/06 10:37:37;;;;;;;2.40;1.60;;;28.70;74.00;;;;;;5069962;28;20460;-63
2024/04/06 10:40:05;;;;;;;2.73;1.90;;;28.60;76.10;;;;;;5070398;28;20481;-63
2024/04/06 10:42:31;;;;;;;2.20;1.63;;;28.60;76.50;;;;;;5069717;28;20465;-62
2024/04/06 10:44:59;;;;;;;3.27;1.47;;;28.40;77.60;;;;;;5069896;28;20457;-62
2024/04/06 10:47:25;;;;;;;4.40;1.70;;;28.20;77.90;;;;;;5070289;28;20198;-63
2024/04/06 10:49:54;;;;;;;2.03;1.20;;;28.20;79.50;;;;;;5070091;28;20484;-63
2024/04/06 10:52:21;;;;;;;1.90;1.30;;;28.40;78.40;;;;;;5070863;28;20470;-63
2024/04/06 10:54:48;;;;;;;2.10;1.50;;;28.50;75.20;;;;;;5070593;28;20451;-63
2024/04/06 10:57:16;;;;;;;2.00;1.50;;;28.40;75.60;;;;;;5070503;28;20513;-63
2024/04/06 10:59:45;;;;;;;2.80;1.90;;;28.40;77.70;;;;;;5069551;28;20475;-63
2024/04/06 11:02:12;;;;;;;3.43;1.53;;;28.20;75.80;;;;;;5071300;28;20438;-63
2024/04/06 11:04:41;;;;;;;1.53;1.27;;;28.00;76.10;;;;;;5069972;28;20457;-63
2024/04/06 11:07:07;;;;;;;2.43;1.93;;;27.90;76.90;;;;;;5069896;28;20450;-63
2024/04/06 11:09:35;;;;;;;3.57;1.30;;;27.70;77.20;;;;;;5068598;28;20486;-63
2024/04/06 11:12:02;;;;;;;1.63;1.40;;;27.60;78.10;;;;;;5069901;28;20462;-63
2024/04/06 11:14:29;;;;;;;2.17;1.53;;;27.40;77.40;;;;;;5069149;28;20430;-62
2024/04/06 11:16:55;;;;;;;4.40;2.50;;;27.10;77.60;;;;;;5068994;28;20474;-63
2024/04/06 11:19:25;;;;;;;3.00;1.50;;;26.90;78.50;;;;;;5067447;28;20490;-64
2024/04/06 11:21:51;;;;;;;2.80;1.30;;;26.80;79.10;;;;;;5069217;28;20466;-63
2024/04/06 11:24:18;;;;;;;2.83;1.53;;;26.60;78.90;;;;;;5068084;28;20513;-63
2024/04/06 11:26:44;;;;;;;4.23;1.70;;;26.50;79.70;;;;;;5068313;28;20442;-62
2024/04/06 11:29:13;;;;;;;2.37;2.07;;;26.30;79.70;;;;;;5068902;28;20461;-63
2024/04/06 11:31:39;;;;;;;2.83;1.50;;;26.00;80.30;;;;;;5068810;28;20273;-63
2024/04/06 11:34:06;;;;;;;3.90;1.57;;;25.90;81.50;;;;;;5068988;28;20431;-63
2024/04/06 11:36:35;;;;;;;2.30;1.37;;;25.60;82.60;;;;;;5070166;28;20421;-63
2024/04/06 11:39:02;;;;;;;4.27;1.50;;;25.50;83.10;;;;;;5069572;28;20477;-62
2024/04/06 11:41:28;;;;;;;3.00;1.70;;;25.40;86.00;;;;;;5069709;28;20805;-63
2024/04/06 11:43:55;;;;;;;3.00;1.60;;;25.30;87.00;;;;;;5069206;28;20463;-63
2024/04/06 11:46:21;;;;;;;2.87;1.47;;;25.30;86.80;;;;;;5070041;28;20752;-63
2024/04/06 11:48:48;;;;;;;2.13;1.30;;;25.30;86.80;;;;;;5069796;28;20462;-65
2024/04/06 11:51:14;;;;;;;1.93;1.17;;;25.10;86.20;;;;;;5071649;28;20451;-65
2024/04/06 11:53:43;;;;;;;2.70;1.20;;;25.00;87.40;;;;;;5072695;28;20497;-64
2024/04/06 11:56:11;;;;;;;8.90;1.63;;;25.00;88.20;;;;;;5067228;28;20440;-63
2024/04/06 11:58:38;;;;;;;2.63;1.40;;;24.80;88.80;;;;;;5064500;28;20522;-64
2024/04/06 12:01:08;;;;;;;4.97;1.47;;;24.90;90.30;;;;;;5063963;28;20469;-63
2024/04/06 12:03:40;;;;;;;3.50;1.57;;;24.70;89.30;;;;;;5071347;28;20428;-66
2024/04/06 12:06:09;;;;;;;2.00;1.80;;;24.70;88.10;;;;;;5068254;28;20467;-64
2024/04/06 12:08:36;;;;;;;2.10;1.30;;;24.60;90.10;;;;;;5072609;28;20487;-64
2024/04/06 12:11:04;;;;;;;2.17;1.20;;;24.50;90.10;;;;;;5075429;28;20534;-64
2024/04/06 12:13:30;;;;;;;1.73;1.30;;;24.40;90.20;;;;;;5076350;28;20455;-65
2024/04/06 12:15:56;;;;;;;1.97;1.20;;;24.40;91.00;;;;;;5071397;28;20436;-65
2024/04/06 12:18:23;;;;;;;2.00;1.10;;;24.30;91.10;;;;;;5075368;28;20447;-64
2024/04/06 12:20:49;;;;;;;1.83;1.70;;;24.20;90.50;;;;;;5076312;28;20479;-64
2024/04/06 12:23:16;;;;;;;2.43;1.20;;;24.20;91.40;;;;;;5076494;28;20447;-64
2024/04/06 12:25:42;;;;;;;1.77;1.37;;;24.30;92.00;;;;;;5075080;28;20219;-67
2024/04/06 12:28:11;;;;;;;1.73;1.20;;;24.30;92.20;;;;;;5076078;28;20432;-64
2024/04/06 12:30:36;;;;;;;1.70;1.60;;;24.30;92.00;;;;;;5076757;28;20481;-65
2024/04/06 12:33:04;;;;;;;2.80;1.67;;;24.40;92.40;;;;;;5077260;28;20439;-65
2024/04/06 12:35:30;;;;;;;1.63;1.50;;;24.50;92.40;;;;;;5075654;28;20458;-64
2024/04/06 12:37:57;;;;;;;2.23;1.23;;;24.50;91.90;;;;;;5076195;28;20436;-64
2024/04/06 12:40:24;;;;;;;3.63;1.70;;;24.40;92.30;;;;;;5075529;28;20281;-64
2024/04/06 12:42:52;;;;;;;2.30;1.77;;;24.40;92.60;;;;;;5075167;28;20844;-65
2024/04/06 12:45:19;;;;;;;3.17;1.30;;;24.30;92.50;;;;;;5072888;28;20457;-64
2024/04/06 12:47:46;;;;;;;1.50;1.13;;;24.30;92.60;;;;;;5075105;28;20439;-65
2024/04/06 12:50:12;;;;;;;1.67;1.17;;;24.30;93.30;;;;;;5066261;28;20479;-65